createdAt,value
2023-03-16T00:16:02.525Z,44.3
2023-03-16T00:36:02.525Z,44.2
2023-03-16T00:56:02.501Z,44.3
2023-03-16T01:16:02.476Z,44.3
2023-03-16T01:36:02.494Z,44.2
2023-03-16T01:56:02.400Z,44.2
2023-03-16T02:16:02.376Z,44.3
2023-03-16T02:36:02.372Z,44.2
2023-03-16T02:56:02.386Z,44.2
2023-03-16T03:16:02.293Z,44.2
2023-03-16T03:36:02.352Z,44.2
2023-03-16T03:56:02.329Z,44.1
2023-03-16T04:16:02.253Z,44.4
2023-03-16T04:36:02.264Z,44.2
2023-03-16T04:56:02.197Z,44.2
2023-03-16T05:16:02.155Z,44.1
2023-03-16T05:36:02.151Z,44.3
2023-03-16T05:56:02.124Z,44.3
2023-03-16T06:16:02.083Z,44.3
2023-03-16T06:36:02.062Z,44.2
2023-03-16T06:56:02.043Z,43.2
2023-03-16T07:16:02.105Z,42.9
2023-03-16T07:36:02.044Z,43.0
2023-03-16T07:56:01.973Z,43.3
2023-03-16T08:16:01.947Z,43.5
2023-03-16T08:36:01.973Z,43.7
2023-03-16T08:56:01.911Z,43.8
2023-03-16T09:16:01.879Z,43.9
2023-03-16T09:36:02.092Z,43.9
2023-03-16T09:56:02.001Z,44.0
2023-03-16T10:16:01.879Z,44.0
2023-03-16T10:36:01.953Z,44.1
2023-03-16T10:56:02.064Z,44.2
2023-03-16T11:16:01.918Z,44.2
2023-03-16T11:36:01.683Z,44.2
2023-03-16T11:56:01.815Z,44.3
2023-03-16T12:16:01.808Z,44.2
2023-03-16T12:36:01.684Z,44.3
2023-03-16T12:56:01.586Z,44.2
2023-03-16T13:16:01.618Z,44.2
2023-03-16T13:36:01.525Z,43.7
2023-03-16T13:56:01.492Z,39.7
2023-03-16T14:16:01.500Z,38.2
2023-03-16T14:36:01.501Z,40.1
2023-03-16T14:56:01.447Z,41.1
2023-03-16T15:16:01.615Z,41.8
2023-03-16T15:36:01.451Z,42.3
2023-03-16T15:56:01.347Z,42.3
2023-03-16T16:16:01.398Z,42.5
2023-03-16T16:36:01.481Z,43.0
2023-03-16T16:56:01.284Z,42.9
2023-03-16T17:16:01.279Z,42.9
2023-03-16T17:36:01.216Z,42.9
2023-03-16T17:56:01.229Z,43.0
2023-03-16T18:16:01.206Z,43.0
2023-03-16T18:36:01.173Z,43.0
2023-03-16T18:56:01.131Z,43.0
2023-03-16T19:16:01.092Z,43.0
2023-03-16T19:36:01.088Z,43.2
2023-03-16T19:56:01.074Z,43.2
2023-03-16T20:16:01.035Z,43.3
2023-03-16T20:36:01.012Z,43.3
2023-03-16T20:56:01.049Z,43.4
2023-03-16T21:16:00.946Z,43.3
2023-03-16T21:36:00.950Z,43.3
2023-03-16T21:56:00.965Z,43.3
2023-03-16T22:16:00.905Z,43.2
2023-03-16T22:36:00.898Z,43.4
2023-03-16T22:56:00.852Z,43.5
2023-03-16T23:16:00.839Z,43.5
2023-03-16T23:36:00.792Z,43.7
2023-03-16T23:56:00.767Z,43.7
